Terminal Aerodrome Forecast
Issued by NWS Brownsville, TX

Home | Current Version | Previous Version | Text Only | Print | Product List | Glossary On
Versions: 1 2 3 4 5 6 7 8 9 10 11 12 13 14
000
FTUS44 KBRO 311721
TAFBRO
TAF
KBRO 311721Z 3118/0118 16017G25KT P6SM BKN035
     FM010300 15010KT P6SM OVC030
     FM010600 16007KT P6SM VCSH BKN025
     FM011400 20008KT P6SM SCT035=

USA.gov is the U.S. government's official web portal to all federal, state and local government web resources and services.